OEYN

Details ICAO OEYN (YNB)
Name YENBO
Region Saudi Arabia
Timezone Asia/Riyadh (UTC+3.0)
Plans Departing 9
Arriving 5
Stats Elevation 26 ft / 8 m (AMSL)
Location 24.144234° 38.063389°
Runways 1
Magnetic Variation 3.822° E
Sunrise 2017-12-13 04:03:29 UTC / 2017-12-13 07:03:29 Local
Sunset 2017-12-13 14:43:09 UTC / 2017-12-13 17:43:09 Local
Advertisement - Login to hide

Runways

ID Width Length Bearing (true) Bearing (mag) Surface Threshold Offset Overrun Length
10 148 ft / 45 m 10,548 ft / 3,215 m 103.24° 99.42° Asphalt 0 ft / 0 m 197 ft / 60 m
28 148 ft / 45 m 10,548 ft / 3,215 m 283.26° 279.44° Asphalt 0 ft / 0 m 197 ft / 60 m

Approach Navaids

Runway Type Ident Frequency Range Bearing (true) Bearing (mag) Slope Elevation
28 Localiser IYEN 111.50 MHz 18 nm / 33 km 283.20° 279.38° - 13 ft / 4 m (AMSL)
28 Glidescope IYEN 111.50 MHz 10 nm / 19 km 283.25° 279.43° 3.00° 26 ft / 8 m (AMSL)
28 DME IYEN 111.50 MHz 18 nm / 33 km - - - 26 ft / 8 m (AMSL)

Map

Weather


0- 5 10 15 20 25 30 35+ Temperature / ° C

Clouds and Precipitation
Forecast for 2017-12-13 00:00 UTC. Updated an hour ago

Ground ~20,000 ft ~40,000 ft Winds

METAR

OEYN 122200Z 08003KT CAVOK 18/09 Q1015 NOSIG

TAF

Not found

Frequencies

Unicom 122.80 MHz CTAF
Tower 118.10 MHz INFO
Tower 121.90 MHz INFO
Warning: Do not use this data for real-world aviation or navigation. No guarantee of current accuracy is given.